This is the latest recevied weather packets stored in our database for station/object N8QQQ. If no packets are shown the sender has not sent any weather packets the latest 10 day(s).
| Time | Temp. | Humidity | Pressure | Rain* | Wind** | Luminosity | Snow |
|---|---|---|---|---|---|---|---|
| 1777692044 | -3.89° C | 90% | 1017.8 hPa | 0 mm | - | 0 W/m² | - |
| 1777691742 | -3.89° C | 90% | 1017.8 hPa | 0 mm | - | 0 W/m² | - |
| 1777691439 | -3.89° C | 89% | 1017.9 hPa | 0 mm | - | 0 W/m² | - |
| 1777691138 | -3.33° C | 88% | 1017.9 hPa | 0 mm | - | 0 W/m² | - |
| 1777690835 | -3.33° C | 86% | 1018 hPa | 0 mm | - | 0 W/m² | - |
| 1777690532 | -3.33° C | 86% | 1018 hPa | 0 mm | - | 0 W/m² | - |
| 1777690231 | -3.33° C | 86% | 1017.9 hPa | 0 mm | - | 0 W/m² | - |
| 1777689928 | -3.33° C | 85% | 1017.9 hPa | 0 mm | - | 0 W/m² | - |
| 1777689626 | -3.33° C | 83% | 1018 hPa | 0 mm | - | 0 W/m² | - |
| 1777689323 | -3.33° C | 84% | 1017.9 hPa | 0 mm | - | 0 W/m² | - |
| 1777689020 | -3.33° C | 83% | 1018 hPa | 0 mm | - | 0 W/m² | - |
| 1777688717 | -3.33° C | 83% | 1017.9 hPa | 0 mm | - | 0 W/m² | - |
| 1777688415 | -3.33° C | 84% | 1018 hPa | 0 mm | - | 0 W/m² | - |
| 1777688112 | -2.78° C | 85% | 1017.8 hPa | 0 mm | - | 0 W/m² | - |
| 1777674172 | 4.44° C | 48% | 1016.8 hPa | 0 mm | - | 75 W/m² | - |
| 1777673567 | 3.89° C | 48% | 1016.6 hPa | 0 mm | - | 140 W/m² | - |
| 1777672659 | 4.44° C | 46% | 1016.6 hPa | 0 mm | - | 59 W/m² | - |
| 1777672049 | 4.44° C | 47% | 1016.7 hPa | 0 mm | - | 251 W/m² | - |
| 1777671745 | 3.89° C | 48% | 1016.7 hPa | 0 mm | - | 128 W/m² | - |
| 1777671441 | 3.89° C | 49% | 1016.7 hPa | 0 mm | - | 96 W/m² | - |
| 1777671137 | 3.89° C | 52% | 1016.6 hPa | 0 mm | - | 91 W/m² | - |
| 1777670828 | 3.89° C | 51% | 1016.5 hPa | 0 mm | - | 86 W/m² | - |
| 1777670525 | 3.89° C | 53% | 1016.6 hPa | 0 mm | - | 79 W/m² | - |
| 1777670222 | 3.89° C | 51% | 1016.6 hPa | 0 mm | - | 85 W/m² | - |
| 1777669616 | 3.89° C | 52% | 1016.7 hPa | 0 mm | - | 123 W/m² | - |
* Rain latest hour (hover to see other rain measurements)
** Current wind speed in m/s (hover to see current wind gust speed)